createdAt,value
2024-05-09T00:00:29.760Z,7.40
2024-05-09T00:03:21.005Z,7.30
2024-05-09T00:06:12.168Z,7.20
2024-05-09T00:09:01.418Z,7.10
2024-05-09T00:11:50.518Z,7.10
2024-05-09T00:14:42.020Z,7.10
2024-05-09T00:17:31.427Z,7.00
2024-05-09T00:20:27.851Z,7.00
2024-05-09T00:23:22.416Z,7.00
2024-05-09T00:26:11.745Z,6.90
2024-05-09T00:29:00.848Z,6.90
2024-05-09T00:31:52.357Z,6.90
2024-05-09T00:34:41.291Z,6.90
2024-05-09T00:37:30.267Z,6.90
2024-05-09T00:40:30.707Z,6.90
2024-05-09T00:43:27.101Z,6.90
2024-05-09T00:46:17.207Z,6.90
2024-05-09T00:49:09.445Z,6.80
2024-05-09T00:52:00.364Z,6.80
2024-05-09T00:54:49.592Z,6.70
2024-05-09T00:57:39.646Z,6.70
2024-05-09T01:00:35.974Z,6.60
2024-05-09T01:03:28.888Z,6.50
2024-05-09T01:06:23.243Z,6.50
2024-05-09T01:09:12.413Z,6.40
2024-05-09T01:12:01.498Z,6.30
2024-05-09T01:14:50.829Z,6.30
2024-05-09T01:17:40.154Z,6.20
2024-05-09T01:20:39.185Z,6.10
2024-05-09T01:23:33.987Z,6.10
2024-05-09T01:26:22.892Z,6.00
2024-05-09T01:29:12.021Z,6.00
2024-05-09T01:32:04.542Z,5.90
2024-05-09T01:34:53.473Z,5.90
2024-05-09T01:37:42.743Z,5.80
2024-05-09T01:40:38.562Z,5.80
2024-05-09T01:43:29.280Z,5.70
2024-05-09T01:46:19.488Z,5.60
2024-05-09T01:49:08.620Z,5.50
2024-05-09T01:51:57.403Z,5.50
2024-05-09T01:54:46.543Z,5.50
2024-05-09T01:57:38.040Z,5.50
2024-05-09T02:00:37.976Z,5.60
2024-05-09T02:03:30.262Z,5.60
2024-05-09T02:06:19.238Z,5.50
2024-05-09T02:09:08.253Z,5.40
2024-05-09T02:11:57.430Z,5.20
2024-05-09T02:14:49.093Z,5.10
2024-05-09T02:17:38.470Z,5.00
2024-05-09T02:20:34.084Z,5.00
2024-05-09T02:23:25.812Z,4.90
2024-05-09T02:26:15.114Z,4.80
2024-05-09T03:40:03.076Z,4.70
2024-05-09T03:42:54.668Z,3.90
2024-05-09T03:45:43.998Z,3.90
2024-05-09T03:48:30.298Z,3.90
2024-05-09T03:51:19.363Z,3.90
2024-05-09T03:54:05.709Z,3.90
2024-05-09T03:56:55.809Z,3.90
2024-05-09T03:59:44.942Z,3.90
2024-05-09T04:02:34.115Z,4.00
2024-05-09T04:05:20.507Z,4.00
2024-05-09T04:08:10.074Z,4.00
2024-05-09T04:10:56.818Z,4.10
2024-05-09T04:13:45.983Z,4.10
2024-05-09T04:16:37.565Z,4.20
2024-05-09T04:19:24.338Z,4.20
2024-05-09T04:22:13.049Z,4.30
2024-05-09T04:24:59.641Z,4.40
2024-05-09T04:27:48.953Z,4.50
2024-05-09T04:30:39.235Z,4.60
2024-05-09T04:33:33.120Z,4.80
2024-05-09T04:36:19.308Z,4.90
2024-05-09T04:39:07.978Z,5.10
2024-05-09T04:41:54.260Z,5.20
2024-05-09T04:44:43.484Z,5.40
2024-05-09T04:47:30.005Z,5.50
2024-05-09T04:50:29.980Z,5.70
2024-05-09T04:53:22.787Z,5.80
2024-05-09T04:56:11.714Z,6.00
2024-05-09T04:58:58.043Z,6.10
2024-05-09T05:01:47.120Z,6.20
2024-05-09T05:04:33.634Z,6.40
2024-05-09T05:07:25.250Z,6.60
2024-05-09T05:30:21.510Z,6.80
2024-05-09T05:33:20.019Z,8.20
2024-05-09T05:36:07.712Z,8.40
2024-05-09T05:38:56.627Z,8.60
2024-05-09T05:41:45.721Z,8.70
2024-05-09T05:44:35.056Z,8.90
2024-05-09T05:47:21.583Z,9.00
2024-05-09T05:50:20.694Z,9.20
2024-05-09T05:53:16.639Z,9.40
2024-05-09T05:56:03.091Z,9.50
2024-05-09T05:58:54.699Z,9.70
2024-05-09T06:01:41.234Z,9.90
2024-05-09T06:04:30.207Z,10.00
2024-05-09T06:07:16.367Z,10.20
2024-05-09T06:10:09.306Z,10.30
2024-05-09T07:00:46.149Z,10.70
2024-05-09T07:03:32.921Z,13.60
2024-05-09T07:06:23.787Z,13.80
2024-05-09T07:09:12.928Z,14.00
2024-05-09T07:12:01.822Z,14.20
2024-05-09T07:14:48.241Z,14.30
2024-05-09T07:17:37.505Z,14.50
2024-05-09T07:20:32.324Z,14.60
2024-05-09T07:23:24.493Z,14.80
2024-05-09T07:26:13.785Z,14.90
2024-05-09T07:29:03.361Z,15.00
2024-05-09T07:31:50.255Z,15.10
2024-05-09T07:34:39.263Z,15.30
2024-05-09T07:37:25.598Z,15.40
2024-05-09T07:40:24.517Z,15.60
2024-05-09T07:43:20.936Z,15.50
2024-05-09T07:47:13.908Z,15.60
2024-05-09T07:50:55.983Z,15.70
2024-05-09T07:55:18.940Z,16.00
2024-05-09T07:58:08.719Z,16.10
2024-05-09T08:00:57.812Z,16.20
2024-05-09T08:03:47.050Z,16.20
2024-05-09T08:06:33.645Z,16.10
2024-05-09T08:09:22.859Z,16.30
2024-05-09T08:12:09.487Z,16.50
2024-05-09T08:14:59.602Z,16.70
2024-05-09T08:17:49.422Z,16.60
2024-05-09T08:20:40.204Z,16.70
2024-05-09T08:23:29.457Z,16.80
2024-05-09T08:29:04.648Z,17.30
2024-05-09T08:31:55.804Z,17.20
2024-05-09T08:34:47.545Z,17.20
2024-05-09T08:37:38.698Z,17.40
2024-05-09T08:40:34.597Z,17.30
2024-05-09T08:43:24.976Z,17.40
2024-05-09T08:46:15.766Z,17.70
2024-05-09T08:49:04.038Z,18.00
2024-05-09T08:51:56.115Z,18.30
2024-05-09T08:54:42.625Z,18.20
2024-05-09T08:57:33.840Z,18.20
2024-05-09T09:00:29.204Z,18.00
2024-05-09T09:03:27.951Z,17.90
2024-05-09T09:06:18.276Z,18.30
2024-05-09T09:09:10.334Z,18.50
2024-05-09T15:15:08.449Z,18.50
2024-05-09T15:17:58.257Z,26.60
2024-05-09T15:20:45.200Z,26.70
2024-05-09T16:29:11.742Z,27.00
2024-05-09T16:32:00.695Z,25.30
2024-05-09T16:34:49.754Z,25.20
2024-05-09T16:37:36.353Z,24.70
2024-05-09T16:40:34.418Z,24.10
2024-05-09T16:43:25.448Z,24.10
2024-05-09T16:46:14.803Z,24.50
2024-05-09T16:49:04.269Z,24.80
2024-05-09T16:51:53.951Z,24.80
2024-05-09T16:54:40.474Z,24.70
2024-05-09T16:57:29.612Z,24.70
2024-05-09T17:00:25.241Z,24.80
2024-05-09T17:03:21.235Z,24.70
2024-05-09T17:06:11.039Z,24.50
2024-05-09T17:09:08.134Z,24.40
2024-05-09T17:12:00.353Z,24.50
2024-05-09T17:14:49.210Z,24.40
2024-05-09T17:17:38.625Z,24.10
2024-05-09T17:40:27.907Z,20.40
2024-05-09T17:43:19.792Z,17.30
2024-05-09T18:11:53.511Z,16.90
2024-05-09T18:14:42.686Z,14.60
2024-05-09T18:17:31.897Z,14.30
2024-05-09T18:20:28.594Z,14.00
2024-05-09T19:00:32.989Z,13.80
2024-05-09T19:03:25.820Z,10.80
2024-05-09T19:14:43.021Z,10.60
2024-05-09T19:17:32.916Z,9.90
2024-05-09T19:20:25.481Z,9.80
2024-05-09T19:23:23.933Z,9.60
2024-05-09T19:26:10.293Z,9.50
2024-05-09T19:28:59.118Z,9.40
2024-05-09T19:31:45.583Z,9.30
2024-05-09T19:34:34.633Z,9.10
2024-05-09T19:37:24.090Z,9.00
2024-05-09T19:40:21.089Z,8.90
2024-05-09T19:43:18.095Z,8.80
2024-05-09T19:46:04.954Z,8.70
2024-05-09T19:48:54.276Z,8.60
2024-05-09T19:51:42.088Z,8.50
2024-05-09T20:03:08.953Z,8.40
2024-05-09T20:20:01.792Z,8.10
2024-05-09T20:22:48.001Z,7.70
2024-05-09T20:25:36.873Z,7.60
2024-05-09T20:28:23.357Z,7.50
2024-05-09T20:31:21.632Z,7.40
2024-05-09T20:34:08.461Z,7.30
2024-05-09T20:36:57.261Z,7.20
2024-05-09T20:39:43.642Z,7.10
2024-05-09T20:42:35.950Z,7.00
2024-05-09T20:45:22.254Z,6.90
2024-05-09T20:48:14.367Z,6.80
2024-05-09T20:51:00.622Z,6.70
2024-05-09T20:53:50.404Z,6.70
2024-05-09T20:56:36.523Z,6.60
2024-05-09T20:59:25.342Z,6.50
2024-05-09T21:02:11.668Z,6.50
2024-05-09T21:05:03.313Z,6.40
2024-05-09T21:07:49.575Z,6.30
2024-05-09T21:10:39.204Z,6.30
2024-05-09T21:13:28.748Z,6.20
2024-05-09T21:16:15.105Z,6.10
2024-05-09T21:19:04.255Z,6.00
2024-05-09T21:21:53.553Z,6.00
2024-05-09T21:24:42.541Z,5.90
2024-05-09T21:27:33.655Z,5.90
2024-05-09T21:30:31.450Z,5.90
2024-05-09T21:33:29.179Z,5.80
2024-05-09T21:36:15.377Z,5.70
2024-05-09T21:39:06.867Z,5.70
2024-05-09T21:41:53.624Z,5.60
2024-05-09T21:44:42.611Z,5.50
2024-05-09T21:47:29.392Z,5.50
2024-05-09T21:50:23.254Z,5.40
2024-05-09T21:53:18.453Z,5.40
2024-05-09T21:56:08.893Z,5.30
2024-05-09T21:58:57.997Z,5.20
2024-05-09T22:01:44.273Z,5.20
2024-05-09T22:04:33.127Z,5.10
2024-05-09T22:07:19.925Z,5.10
2024-05-09T22:10:22.663Z,5.00
2024-05-09T22:13:16.939Z,5.00
2024-05-09T22:16:12.135Z,4.90
2024-05-09T22:18:58.383Z,4.90
2024-05-09T22:21:47.491Z,4.80
2024-05-09T22:24:34.413Z,4.80
2024-05-09T22:27:23.143Z,4.80
2024-05-09T22:55:42.745Z,4.70
2024-05-09T23:06:57.805Z,4.40
2024-05-09T23:09:47.727Z,4.20
2024-05-09T23:12:34.003Z,4.20
2024-05-09T23:15:23.203Z,4.20
2024-05-09T23:18:09.759Z,4.10
2024-05-09T23:21:02.921Z,4.10
2024-05-09T23:23:49.215Z,4.10
2024-05-09T23:26:38.329Z,4.00
2024-05-09T23:29:24.752Z,4.00
2024-05-09T23:32:13.754Z,4.00
2024-05-09T23:35:00.520Z,3.90
2024-05-09T23:37:52.364Z,3.90
2024-05-09T23:40:42.527Z,3.90
2024-05-09T23:43:29.313Z,3.90
2024-05-09T23:46:18.232Z,3.90
2024-05-09T23:49:04.393Z,3.80
2024-05-09T23:51:53.124Z,3.80
2024-05-09T23:54:42.367Z,3.80
